createdAt,value
2022-12-13T00:01:32.079Z,1.08
2022-12-13T00:04:02.073Z,1.50
2022-12-13T00:06:30.831Z,2.00
2022-12-13T00:08:58.462Z,0.95
2022-12-13T00:11:26.113Z,1.27
2022-12-13T00:13:52.972Z,0.82
2022-12-13T00:16:25.072Z,1.20
2022-12-13T00:18:58.735Z,0.93
2022-12-13T00:21:32.077Z,0.90
2022-12-13T00:24:00.359Z,1.10
2022-12-13T00:26:30.741Z,0.85
2022-12-13T00:29:00.834Z,1.10
2022-12-13T00:31:56.813Z,0.75
2022-12-13T00:34:15.056Z,0.85
2022-12-13T00:36:41.961Z,1.42
2022-12-13T00:39:08.941Z,1.40
2022-12-13T00:41:36.624Z,1.55
2022-12-13T00:44:04.687Z,1.73
2022-12-13T00:46:32.031Z,1.27
2022-12-13T00:49:01.143Z,0.55
2022-12-13T00:51:30.040Z,0.70
2022-12-13T00:54:00.199Z,1.02
2022-12-13T00:56:29.697Z,1.98
2022-12-13T00:58:58.245Z,0.82
2022-12-13T01:01:28.424Z,1.67
2022-12-13T01:03:57.855Z,0.73
2022-12-13T01:06:46.574Z,1.20
2022-12-13T01:09:20.164Z,0.93
2022-12-13T01:11:47.406Z,0.85
2022-12-13T01:14:15.846Z,0.68
2022-12-13T01:16:42.811Z,1.20
2022-12-13T01:19:12.917Z,1.30
2022-12-13T01:21:39.855Z,0.60
2022-12-13T01:24:08.233Z,0.77
2022-12-13T01:26:35.222Z,1.05
2022-12-13T01:29:02.406Z,1.20
2022-12-13T01:31:29.363Z,0.68
2022-12-13T01:33:56.696Z,1.15
2022-12-13T01:36:27.806Z,1.10
2022-12-13T01:38:58.631Z,1.00
2022-12-13T01:41:30.236Z,0.73
2022-12-13T01:44:03.815Z,1.10
2022-12-13T01:46:33.048Z,1.13
2022-12-13T01:49:19.344Z,0.60
2022-12-13T01:51:56.080Z,0.65
2022-12-13T01:54:34.137Z,0.70
2022-12-13T01:57:05.587Z,1.15
2022-12-13T01:59:37.816Z,1.42
2022-12-13T02:02:06.193Z,1.00
2022-12-13T02:04:49.365Z,0.70
2022-12-13T02:07:22.846Z,1.83
2022-12-13T02:09:56.728Z,0.90
2022-12-13T02:12:29.388Z,0.47
2022-12-13T02:15:02.901Z,0.95
2022-12-13T02:17:58.847Z,0.60
2022-12-13T02:20:40.771Z,0.88
2022-12-13T02:23:32.338Z,2.08
2022-12-13T02:26:14.452Z,1.10
2022-12-13T02:29:09.558Z,0.57
2022-12-13T02:31:45.499Z,0.52
2022-12-13T02:34:25.194Z,1.13
2022-12-13T02:36:58.039Z,0.55
2022-12-13T02:39:58.163Z,0.32
2022-12-13T02:42:55.786Z,0.77
2022-12-13T02:45:41.362Z,1.05
2022-12-13T02:48:11.784Z,0.70
2022-12-13T02:50:39.902Z,0.85
2022-12-13T02:53:09.227Z,0.95
2022-12-13T02:55:39.626Z,0.70
2022-12-13T02:58:07.195Z,0.82
2022-12-13T03:01:29.026Z,1.05
2022-12-13T03:04:05.411Z,0.68
2022-12-13T03:06:41.121Z,0.60
2022-12-13T03:09:37.468Z,0.30
2022-12-13T03:12:38.836Z,0.95
2022-12-13T03:15:18.672Z,0.80
2022-12-13T03:18:18.294Z,0.63
2022-12-13T03:20:57.856Z,0.88
2022-12-13T03:23:25.847Z,0.88
2022-12-13T03:25:59.699Z,0.98
2022-12-13T03:28:26.647Z,0.82
2022-12-13T03:30:53.617Z,0.63
2022-12-13T03:33:20.654Z,0.40
2022-12-13T03:35:47.697Z,0.70
2022-12-13T03:38:21.530Z,0.55
2022-12-13T03:40:53.660Z,0.57
2022-12-13T03:43:22.334Z,1.67
2022-12-13T03:45:50.667Z,0.70
2022-12-13T03:48:22.033Z,0.70
2022-12-13T03:50:51.215Z,0.70
2022-12-13T03:53:23.208Z,0.47
2022-12-13T03:56:01.326Z,0.40
2022-12-13T03:58:35.610Z,0.20
2022-12-13T04:01:06.396Z,0.20
2022-12-13T04:03:33.395Z,0.20
2022-12-13T04:06:00.263Z,0.47
2022-12-13T04:08:27.220Z,0.75
2022-12-13T04:10:54.269Z,0.50
2022-12-13T04:13:33.028Z,0.57
2022-12-13T04:16:01.016Z,2.47
2022-12-13T04:18:28.210Z,0.90
2022-12-13T04:20:55.114Z,1.00
2022-12-13T04:23:22.048Z,0.80
2022-12-13T04:25:49.053Z,0.90
2022-12-13T04:28:22.020Z,0.80
2022-12-13T04:30:52.980Z,0.65
2022-12-13T04:33:24.830Z,0.73
2022-12-13T04:35:52.313Z,0.30
2022-12-13T04:38:19.571Z,0.77
2022-12-13T04:40:46.557Z,0.70
2022-12-13T04:43:13.472Z,0.70
2022-12-13T04:45:40.433Z,0.40
2022-12-13T04:48:07.983Z,0.40
2022-12-13T04:50:35.135Z,0.63
2022-12-13T04:53:02.042Z,0.55
2022-12-13T04:55:28.920Z,0.52
2022-12-13T04:57:55.871Z,0.60
2022-12-13T05:00:23.351Z,0.40
2022-12-13T05:02:50.631Z,0.22
2022-12-13T05:05:18.259Z,0.52
2022-12-13T05:07:45.652Z,0.73
2022-12-13T05:10:14.011Z,0.40
2022-12-13T05:13:00.338Z,0.55
2022-12-13T05:15:28.276Z,0.38
2022-12-13T05:17:55.169Z,0.45
2022-12-13T05:20:22.346Z,0.30
2022-12-13T05:22:49.218Z,0.30
2022-12-13T05:25:16.397Z,1.02
2022-12-13T05:27:43.519Z,0.60
2022-12-13T05:30:10.937Z,0.93
2022-12-13T05:32:44.144Z,0.80
2022-12-13T05:35:22.138Z,0.55
2022-12-13T05:37:55.395Z,0.68
2022-12-13T05:40:27.432Z,0.50
2022-12-13T05:43:01.389Z,0.30
2022-12-13T05:45:32.077Z,0.40
2022-12-13T05:47:59.690Z,0.47
2022-12-13T05:50:26.616Z,0.40
2022-12-13T05:52:53.560Z,0.60
2022-12-13T05:55:20.650Z,0.63
2022-12-13T05:57:50.695Z,0.60
2022-12-13T06:00:29.048Z,0.52
2022-12-13T06:03:00.637Z,0.68
2022-12-13T06:05:28.963Z,0.30
2022-12-13T06:07:57.578Z,0.50
2022-12-13T06:10:24.834Z,0.68
2022-12-13T06:13:02.663Z,0.40
2022-12-13T06:15:34.552Z,0.30
2022-12-13T06:18:02.155Z,0.50
2022-12-13T06:20:29.036Z,0.32
2022-12-13T06:22:55.907Z,0.43
2022-12-13T06:25:30.048Z,0.30
2022-12-13T06:28:02.271Z,0.40
2022-12-13T06:30:30.882Z,0.50
2022-12-13T06:32:57.846Z,0.28
2022-12-13T06:35:27.982Z,0.50
2022-12-13T06:38:00.903Z,0.50
2022-12-13T06:40:31.044Z,0.70
2022-12-13T06:42:57.991Z,0.80
2022-12-13T06:45:25.449Z,0.82
2022-12-13T06:47:52.569Z,0.32
2022-12-13T06:50:19.764Z,0.40
2022-12-13T06:52:47.129Z,0.45
2022-12-13T06:55:14.628Z,1.75
2022-12-13T06:57:41.833Z,0.52
2022-12-13T07:00:10.208Z,0.73
2022-12-13T07:02:38.547Z,0.68
2022-12-13T07:05:06.034Z,0.82
2022-12-13T07:07:33.185Z,0.52
2022-12-13T07:10:00.100Z,0.90
2022-12-13T07:12:26.996Z,0.60
2022-12-13T07:14:55.053Z,0.65
2022-12-13T07:17:32.583Z,0.50
2022-12-13T07:20:00.947Z,0.45
2022-12-13T07:22:28.285Z,0.50
2022-12-13T07:24:55.189Z,0.38
2022-12-13T07:27:22.066Z,0.35
2022-12-13T07:29:48.959Z,0.60
2022-12-13T07:32:15.983Z,0.50
2022-12-13T07:34:42.849Z,0.20
2022-12-13T07:37:29.301Z,0.57
2022-12-13T07:40:02.615Z,0.63
2022-12-13T07:42:30.565Z,1.15
2022-12-13T07:44:57.458Z,2.20
2022-12-13T07:47:25.954Z,1.10
2022-12-13T07:49:52.855Z,0.90
2022-12-13T07:52:19.736Z,1.10
2022-12-13T07:54:46.627Z,0.50
2022-12-13T07:57:13.523Z,0.98
2022-12-13T07:59:40.447Z,0.77
2022-12-13T08:02:13.246Z,0.30
2022-12-13T08:04:42.241Z,0.50
2022-12-13T08:07:09.880Z,0.45
2022-12-13T08:09:37.340Z,0.40
2022-12-13T08:12:05.501Z,0.88
2022-12-13T08:14:32.679Z,0.63
2022-12-13T08:16:59.919Z,0.20
2022-12-13T08:19:26.929Z,0.60
2022-12-13T08:21:56.879Z,0.60
2022-12-13T08:24:27.068Z,0.65
2022-12-13T08:26:54.624Z,0.63
2022-12-13T08:29:23.474Z,0.63
2022-12-13T08:32:09.881Z,0.40
2022-12-13T08:34:39.202Z,1.10
2022-12-13T08:37:06.346Z,0.70
2022-12-13T08:39:36.430Z,0.80
2022-12-13T08:42:14.792Z,0.80
2022-12-13T08:44:53.812Z,0.50
2022-12-13T08:47:25.502Z,0.57
2022-12-13T08:50:03.199Z,0.70
2022-12-13T08:52:39.235Z,0.65
2022-12-13T08:55:08.728Z,0.40
2022-12-13T08:57:39.328Z,0.40
2022-12-13T09:00:07.716Z,0.47
2022-12-13T09:02:37.992Z,0.52
2022-12-13T09:05:07.443Z,0.50
2022-12-13T09:07:36.398Z,0.50
2022-12-13T09:10:07.374Z,0.40
2022-12-13T09:12:53.964Z,0.60
2022-12-13T09:15:34.212Z,1.55
2022-12-13T09:18:05.132Z,1.20
2022-12-13T09:20:40.686Z,0.95
2022-12-13T09:23:14.264Z,0.80
2022-12-13T09:25:55.919Z,0.82
2022-12-13T09:28:23.304Z,1.00
2022-12-13T09:30:50.562Z,0.88
2022-12-13T09:33:30.123Z,1.42
2022-12-13T09:35:58.273Z,1.60
2022-12-13T09:38:28.623Z,2.47
2022-12-13T09:40:58.673Z,1.60
2022-12-13T09:43:32.801Z,1.42
2022-12-13T09:46:23.068Z,1.38
2022-12-13T09:48:53.341Z,1.63
2022-12-13T09:51:39.625Z,1.35
2022-12-13T09:54:21.267Z,2.53
2022-12-13T09:56:53.957Z,1.75
2022-12-13T09:59:32.324Z,1.60
2022-12-13T10:02:14.976Z,1.30
2022-12-13T10:04:42.169Z,1.20
2022-12-13T10:07:24.093Z,0.77
2022-12-13T10:10:00.238Z,3.05
2022-12-13T10:12:29.302Z,2.33
2022-12-13T10:15:00.989Z,1.70
2022-12-13T10:17:38.586Z,1.40
2022-12-13T10:20:06.555Z,0.90
2022-12-13T10:22:33.535Z,0.60
2022-12-13T10:25:05.944Z,0.50
2022-12-13T10:27:47.431Z,0.90
2022-12-13T10:30:28.022Z,0.90
2022-12-13T10:33:05.343Z,0.60
2022-12-13T10:35:39.069Z,0.38
2022-12-13T10:38:10.474Z,0.77
2022-12-13T10:40:40.596Z,0.50
2022-12-13T10:43:20.565Z,0.80
2022-12-13T10:45:57.794Z,1.05
2022-12-13T10:48:31.124Z,1.35
2022-12-13T10:51:09.442Z,1.00
2022-12-13T10:53:58.392Z,0.90
2022-12-13T10:56:37.726Z,0.73
2022-12-13T10:59:25.931Z,0.82
2022-12-13T11:01:54.333Z,0.88
2022-12-13T11:04:28.503Z,0.68
2022-12-13T11:06:57.644Z,0.68
2022-12-13T11:09:38.246Z,1.33
2022-12-13T11:12:18.215Z,1.08
2022-12-13T11:15:01.766Z,0.90
2022-12-13T11:17:32.052Z,0.60
2022-12-13T11:20:04.309Z,1.35
2022-12-13T11:22:37.636Z,0.85
2022-12-13T11:25:32.870Z,0.80
2022-12-13T11:28:26.426Z,1.08
2022-12-13T11:31:07.530Z,1.25
2022-12-13T11:33:58.639Z,0.60
2022-12-13T11:36:40.568Z,1.30
2022-12-13T11:39:16.975Z,3.15
2022-12-13T11:42:04.718Z,2.45
2022-12-13T11:44:52.365Z,1.15
2022-12-13T11:47:27.803Z,0.77
2022-12-13T11:49:58.798Z,1.17
2022-12-13T11:52:41.281Z,0.85
2022-12-13T11:55:27.377Z,0.98
2022-12-13T11:58:16.402Z,1.10
2022-12-13T12:01:17.936Z,0.90
2022-12-13T12:03:54.693Z,1.10
2022-12-13T12:06:29.313Z,0.80
2022-12-13T12:09:07.412Z,0.60
2022-12-13T12:11:39.841Z,0.93
2022-12-13T12:14:35.954Z,0.93
2022-12-13T12:17:04.211Z,0.73
2022-12-13T12:19:39.880Z,0.98
2022-12-13T12:22:26.499Z,0.77
2022-12-13T12:27:23.316Z,0.70
2022-12-13T12:29:52.925Z,0.40
2022-12-13T12:32:28.704Z,0.35
2022-12-13T12:35:07.814Z,0.73
2022-12-13T12:37:54.508Z,0.38
2022-12-13T12:43:37.944Z,0.80
2022-12-13T12:47:08.680Z,1.20
2022-12-13T12:49:43.021Z,0.75
2022-12-13T12:52:23.360Z,0.85
2022-12-13T12:55:12.345Z,0.85
2022-12-13T12:58:10.425Z,1.30
2022-12-13T13:01:14.621Z,1.00
2022-12-13T13:03:43.124Z,1.55
2022-12-13T13:06:19.594Z,1.10
2022-12-13T13:09:06.756Z,1.85
2022-12-13T13:11:43.548Z,1.70
2022-12-13T13:14:33.666Z,2.78
2022-12-13T13:17:21.504Z,1.80
2022-12-13T13:19:49.698Z,0.73
2022-12-13T13:22:31.133Z,1.45
2022-12-13T13:25:04.956Z,1.42
2022-12-13T13:27:35.395Z,0.70
2022-12-13T13:30:20.983Z,0.75
2022-12-13T13:32:50.641Z,1.40
2022-12-13T13:35:43.712Z,1.00
2022-12-13T13:38:51.033Z,1.10
2022-12-13T13:41:56.832Z,0.60
2022-12-13T13:44:45.667Z,0.75
2022-12-13T13:47:24.779Z,1.27
2022-12-13T13:50:12.863Z,0.98
2022-12-13T13:53:21.265Z,0.68
2022-12-13T13:56:04.891Z,2.55
2022-12-13T13:58:41.041Z,1.40
2022-12-13T14:04:21.310Z,1.02
2022-12-13T14:07:24.995Z,1.55
2022-12-13T14:10:30.736Z,6.03
2022-12-13T14:13:44.462Z,3.70
2022-12-13T14:16:33.850Z,1.50
2022-12-13T14:19:15.851Z,1.40
2022-12-13T14:22:04.086Z,2.20
2022-12-13T14:24:33.866Z,1.55
2022-12-13T14:27:15.113Z,1.80
2022-12-13T14:29:48.035Z,1.20
2022-12-13T14:32:31.203Z,1.63
2022-12-13T14:34:59.654Z,1.92
2022-12-13T14:37:59.142Z,0.85
2022-12-13T14:40:26.289Z,1.13
2022-12-13T14:42:55.073Z,1.63
2022-12-13T14:45:25.409Z,2.45
2022-12-13T14:47:58.246Z,3.15
2022-12-13T14:50:28.041Z,1.65
2022-12-13T14:52:56.666Z,2.83
2022-12-13T14:55:28.386Z,1.83
2022-12-13T14:57:57.695Z,1.55
2022-12-13T15:00:34.889Z,1.20
2022-12-13T15:03:04.220Z,0.85
2022-12-13T15:05:45.668Z,0.70
2022-12-13T15:08:18.993Z,1.13
2022-12-13T15:10:53.191Z,1.42
2022-12-13T15:13:38.745Z,1.30
2022-12-13T15:16:30.304Z,1.77
2022-12-13T15:19:30.145Z,1.08
2022-12-13T15:22:05.765Z,0.70
2022-12-13T15:24:36.175Z,1.20
2022-12-13T15:27:04.011Z,1.48
2022-12-13T15:29:34.296Z,1.45
2022-12-13T15:32:02.433Z,1.65
2022-12-13T15:34:30.600Z,1.15
2022-12-13T15:37:28.247Z,0.90
2022-12-13T15:40:01.264Z,1.13
2022-12-13T15:42:35.903Z,1.40
2022-12-13T15:45:17.622Z,1.50
2022-12-13T15:47:47.412Z,1.58
2022-12-13T15:50:38.498Z,1.90
2022-12-13T15:53:27.667Z,2.30
2022-12-13T15:55:55.283Z,2.13
2022-12-13T15:58:34.140Z,2.03
2022-12-13T16:01:07.505Z,1.85
2022-12-13T16:03:42.685Z,2.22
2022-12-13T16:06:10.407Z,1.30
2022-12-13T16:08:39.819Z,1.80
2022-12-13T16:11:09.035Z,2.72
2022-12-13T16:13:37.974Z,1.90
2022-12-13T16:16:29.748Z,1.10
2022-12-13T16:18:59.043Z,1.40
2022-12-13T16:21:28.278Z,1.98
2022-12-13T16:23:55.514Z,1.23
2022-12-13T16:26:26.295Z,0.85
2022-12-13T16:29:00.450Z,1.45
2022-12-13T16:31:35.556Z,1.70
2022-12-13T16:34:04.099Z,1.92
2022-12-13T16:36:32.017Z,1.27
2022-12-13T16:38:59.238Z,1.23
2022-12-13T16:41:26.924Z,2.20
2022-12-13T16:44:01.811Z,1.90
2022-12-13T16:47:12.886Z,1.60
2022-12-13T16:49:21.328Z,1.75
2022-12-13T16:51:49.284Z,1.13
2022-12-13T16:54:18.129Z,1.50
2022-12-13T16:56:45.844Z,4.95
2022-12-13T16:59:22.529Z,3.40
2022-12-13T17:01:53.245Z,3.63
2022-12-13T17:04:27.532Z,5.47
2022-12-13T17:06:55.603Z,5.05
2022-12-13T17:09:24.068Z,2.33
2022-12-13T17:11:51.029Z,3.40
2022-12-13T17:14:17.948Z,3.70
2022-12-13T17:16:48.461Z,3.03
2022-12-13T17:19:17.826Z,3.17
2022-12-13T17:21:45.011Z,3.78
2022-12-13T17:24:12.729Z,2.25
2022-12-13T17:26:41.499Z,2.40
2022-12-13T17:29:22.810Z,2.17
2022-12-13T17:31:49.881Z,6.85
2022-12-13T17:34:16.998Z,5.90
2022-12-13T17:36:44.045Z,15.18
2022-12-13T17:39:12.452Z,7.55
2022-12-13T17:41:39.483Z,6.03
2022-12-13T17:44:10.157Z,6.15
2022-12-13T17:46:38.179Z,6.47
2022-12-13T17:49:05.819Z,5.50
2022-12-13T17:51:32.742Z,7.30
2022-12-13T17:53:59.644Z,8.60
2022-12-13T17:56:26.903Z,5.05
2022-12-13T17:58:53.858Z,3.95
2022-12-13T18:01:23.849Z,3.83
2022-12-13T18:03:55.786Z,2.65
2022-12-13T18:06:24.900Z,2.08
2022-12-13T18:08:51.808Z,2.58
2022-12-13T18:11:35.708Z,1.35
2022-12-13T18:14:04.852Z,1.83
2022-12-13T18:16:37.939Z,2.15
2022-12-13T18:19:08.082Z,2.03
2022-12-13T18:21:36.912Z,2.58
2022-12-13T18:24:05.332Z,2.33
2022-12-13T18:26:33.060Z,1.63
2022-12-13T18:28:59.999Z,2.17
2022-12-13T18:31:28.450Z,1.90
2022-12-13T18:33:56.315Z,1.25
2022-12-13T18:36:25.341Z,2.60
2022-12-13T18:38:52.975Z,3.20
2022-12-13T18:41:25.356Z,3.47
2022-12-13T18:44:00.353Z,3.00
2022-12-13T18:46:28.730Z,2.47
2022-12-13T18:52:04.577Z,5.90
2022-12-13T18:54:31.865Z,5.22
2022-12-13T18:56:58.859Z,5.25
2022-12-13T18:59:26.096Z,4.10
2022-12-13T19:01:53.296Z,3.03
2022-12-13T19:04:20.364Z,3.50
2022-12-13T19:06:47.316Z,3.50
2022-12-13T19:09:14.387Z,1.67
2022-12-13T19:11:41.445Z,2.53
2022-12-13T19:14:08.482Z,3.50
2022-12-13T19:16:35.629Z,2.88
2022-12-13T19:19:02.744Z,3.42
2022-12-13T19:21:29.797Z,2.83
2022-12-13T19:23:58.177Z,2.88
2022-12-13T19:26:29.249Z,3.60
2022-12-13T19:28:58.262Z,2.70
2022-12-13T19:31:30.956Z,3.22
2022-12-13T19:33:59.833Z,3.70
2022-12-13T19:36:26.820Z,3.38
2022-12-13T19:38:56.119Z,2.83
2022-12-13T19:41:23.183Z,4.28
2022-12-13T19:43:53.018Z,3.05
2022-12-13T19:46:20.815Z,1.67
2022-12-13T19:48:48.433Z,2.22
2022-12-13T19:51:15.698Z,1.98
2022-12-13T19:53:42.656Z,3.05
2022-12-13T19:56:18.185Z,2.35
2022-12-13T19:58:48.759Z,2.88
2022-12-13T20:01:17.611Z,6.60
2022-12-13T20:03:46.169Z,2.83
2022-12-13T20:06:16.697Z,4.43
2022-12-13T20:08:43.868Z,3.40
2022-12-13T20:11:17.347Z,2.88
2022-12-13T20:13:53.538Z,2.25
2022-12-13T20:16:23.897Z,2.60
2022-12-13T20:18:58.472Z,2.17
2022-12-13T20:21:26.191Z,2.10
2022-12-13T20:24:03.011Z,2.78
2022-12-13T20:26:36.214Z,2.88
2022-12-13T20:29:06.528Z,2.92
2022-12-13T20:31:35.176Z,1.77
2022-12-13T20:34:14.338Z,1.58
2022-12-13T20:36:42.540Z,1.85
2022-12-13T20:39:11.684Z,1.45
2022-12-13T20:41:38.764Z,1.65
2022-12-13T20:44:08.323Z,1.58
2022-12-13T20:46:36.628Z,1.67
2022-12-13T20:49:17.422Z,1.52
2022-12-13T20:51:44.939Z,1.50
2022-12-13T20:54:12.090Z,1.67
2022-12-13T20:56:39.648Z,1.30
2022-12-13T20:59:09.592Z,1.92
2022-12-13T21:01:38.665Z,1.33
2022-12-13T21:04:07.588Z,1.17
2022-12-13T21:06:37.059Z,1.42
2022-12-13T21:09:05.377Z,1.13
2022-12-13T21:11:38.028Z,1.23
2022-12-13T21:14:12.157Z,1.80
2022-12-13T21:16:43.359Z,0.68
2022-12-13T21:19:14.267Z,0.82
2022-12-13T21:21:41.595Z,2.03
2022-12-13T21:24:09.325Z,1.58
2022-12-13T21:26:36.722Z,1.75
2022-12-13T21:29:06.841Z,1.85
2022-12-13T21:31:35.580Z,1.40
2022-12-13T21:34:03.906Z,1.50
2022-12-13T21:36:33.995Z,1.40
2022-12-13T21:39:28.017Z,1.48
2022-12-13T21:41:55.667Z,1.45
2022-12-13T21:44:23.138Z,1.02
2022-12-13T21:49:37.392Z,0.65
2022-12-13T21:52:04.718Z,2.25
2022-12-13T21:54:31.652Z,1.30
2022-12-13T21:57:17.039Z,1.05
2022-12-13T21:59:44.105Z,1.90
2022-12-13T22:02:16.986Z,0.80
2022-12-13T22:04:52.651Z,0.93
2022-12-13T22:07:33.256Z,1.00
2022-12-13T22:10:01.587Z,1.17
2022-12-13T22:12:38.038Z,1.02
2022-12-13T22:15:08.018Z,0.85
2022-12-13T22:17:36.418Z,0.82
2022-12-13T22:20:10.707Z,0.95
2022-12-13T22:22:48.863Z,0.73
2022-12-13T22:25:16.235Z,0.90
2022-12-13T22:27:43.335Z,0.77
2022-12-13T22:30:17.921Z,0.80
2022-12-13T22:33:12.010Z,0.70
2022-12-13T22:36:07.587Z,0.55
2022-12-13T22:38:37.120Z,0.60
2022-12-13T22:41:19.400Z,0.50
2022-12-13T22:44:54.198Z,0.43
2022-12-13T22:47:21.355Z,0.70
2022-12-13T22:49:49.067Z,0.47
2022-12-13T22:52:16.420Z,2.05
2022-12-13T22:54:43.784Z,0.80
2022-12-13T22:57:13.606Z,0.70
2022-12-13T22:59:41.256Z,0.60
2022-12-13T23:02:10.162Z,0.30
2022-12-13T23:04:46.211Z,0.52
2022-12-13T23:07:13.766Z,0.80
2022-12-13T23:09:40.965Z,0.30
2022-12-13T23:12:26.569Z,1.17
2022-12-13T23:14:56.105Z,0.43
2022-12-13T23:17:26.419Z,1.15
2022-12-13T23:19:53.945Z,1.10
2022-12-13T23:22:28.302Z,0.60
2022-12-13T23:25:01.905Z,2.35
2022-12-13T23:27:29.356Z,0.60
2022-12-13T23:29:56.604Z,0.95
2022-12-13T23:32:27.754Z,1.55
2022-12-13T23:35:06.884Z,1.20
2022-12-13T23:37:45.301Z,1.00
2022-12-13T23:40:16.129Z,0.90
2022-12-13T23:42:43.411Z,1.35
2022-12-13T23:45:13.296Z,1.52
2022-12-13T23:48:29.860Z,3.15
2022-12-13T23:50:58.440Z,1.05
2022-12-13T23:53:28.460Z,1.10
2022-12-13T23:55:57.955Z,1.30
2022-12-13T23:58:25.785Z,1.75
